createdAt,value
2023-04-28T00:03:15.559Z,4
2023-04-28T00:09:08.825Z,3.8
2023-04-28T00:15:00.069Z,3.8
2023-04-28T00:20:52.810Z,3.8
2023-04-28T00:26:44.006Z,3.6
2023-04-28T00:32:40.008Z,3.6
2023-04-28T00:38:31.528Z,3.6
2023-04-28T00:44:07.802Z,3.5
2023-04-28T00:49:43.823Z,3.3
2023-04-28T00:55:34.971Z,3.1
2023-04-28T01:01:10.809Z,2.9
2023-04-28T01:06:49.804Z,3
2023-04-28T01:12:41.248Z,3.3
2023-04-28T01:18:33.531Z,3
2023-04-28T01:24:24.432Z,3.1
2023-04-28T01:30:15.436Z,3
2023-04-28T01:36:06.865Z,3.2
2023-04-28T01:41:58.747Z,3
2023-04-28T01:47:50.587Z,2.9
2023-04-28T01:53:42.009Z,2.9
2023-04-28T01:59:35.557Z,2.6
2023-04-28T02:05:28.281Z,2.5
2023-04-28T02:11:19.395Z,2.5
2023-04-28T02:16:55.754Z,2.6
2023-04-28T02:22:49.815Z,2.9
2023-04-28T02:28:25.717Z,2.8
2023-04-28T02:34:02.499Z,2.6
2023-04-28T02:39:53.475Z,2.6
2023-04-28T02:45:44.841Z,2.6
2023-04-28T02:51:20.952Z,2.8
2023-04-28T02:57:12.582Z,3.2
2023-04-28T03:03:05.171Z,3.1
2023-04-28T03:08:42.846Z,3.1
2023-04-28T03:14:18.786Z,2.9
2023-04-28T03:19:40.745Z,2.8
2023-04-28T03:25:41.637Z,2.7
2023-04-28T03:31:17.314Z,2.5
2023-04-28T03:36:38.027Z,2.4
2023-04-28T03:42:30.136Z,2.3
2023-04-28T03:48:23.875Z,2.3
2023-04-28T03:54:14.512Z,2.3
2023-04-28T04:00:05.915Z,2.5
2023-04-28T04:06:01.310Z,2.8
2023-04-28T04:11:37.245Z,3
2023-04-28T04:17:30.240Z,3.1
2023-04-28T04:23:22.158Z,3.3
2023-04-28T04:29:13.202Z,3.4
2023-04-28T04:35:05.452Z,3.6
2023-04-28T04:40:56.865Z,3.8
2023-04-28T04:47:05.309Z,4
2023-04-28T04:52:57.668Z,4.2
2023-04-28T04:58:51.371Z,4.6
2023-04-28T05:04:44.959Z,4.9
2023-04-28T05:10:51.664Z,5.1
2023-04-28T05:16:46.588Z,5.5
2023-04-28T05:22:38.236Z,5.8
2023-04-28T05:28:30.501Z,6.2
2023-04-28T05:34:22.650Z,6.6
2023-04-28T05:40:14.062Z,7
2023-04-28T05:46:12.284Z,6.8
2023-04-28T05:52:10.230Z,7.7
2023-04-28T05:58:09.805Z,7.6
2023-04-28T06:03:47.624Z,8.3
2023-04-28T06:09:26.653Z,8.1
2023-04-28T06:15:02.618Z,8.3
2023-04-28T06:20:39.222Z,8.5
2023-04-28T06:25:59.643Z,9
2023-04-28T06:31:37.279Z,8.6
2023-04-28T06:37:00.388Z,8.8
2023-04-28T06:42:06.004Z,9.3
2023-04-28T06:47:29.799Z,9.8
2023-04-28T06:52:55.965Z,9.9
2023-04-28T06:58:48.608Z,10.2
2023-04-28T07:04:42.315Z,10.2
2023-04-28T07:10:38.265Z,10.6
2023-04-28T07:16:30.112Z,11.6
2023-04-28T07:22:21.549Z,11.7
2023-04-28T07:28:15.541Z,12.6
2023-04-28T07:34:25.252Z,11.3
2023-04-28T07:40:16.313Z,10.6
2023-04-28T07:46:11.241Z,11.7
2023-04-28T07:51:48.202Z,11.9
2023-04-28T07:57:39.279Z,11.5
2023-04-28T08:03:33.009Z,11.6
2023-04-28T08:09:26.716Z,12.5
2023-04-28T08:15:02.046Z,12.7
2023-04-28T08:20:57.742Z,12.4
2023-04-28T08:26:50.713Z,12.7
2023-04-28T08:32:12.453Z,12.4
2023-04-28T08:37:49.109Z,13.8
2023-04-28T08:43:28.436Z,14.2
2023-04-28T08:48:50.478Z,12.8
2023-04-28T08:54:58.506Z,14.8
2023-04-28T09:00:04.290Z,14.8
2023-04-28T09:05:43.966Z,14.2
2023-04-28T09:11:07.283Z,15.1
2023-04-28T09:16:28.634Z,15.5
2023-04-28T09:22:38.317Z,14.4
2023-04-28T09:28:29.904Z,16.4
2023-04-28T09:39:29.891Z,15.9
2023-04-28T09:45:22.836Z,16
2023-04-28T09:50:44.046Z,16.8
2023-04-28T09:56:34.782Z,17.4
2023-04-28T10:04:23.585Z,17.2
2023-04-28T10:10:16.967Z,16.3
2023-04-28T10:15:53.000Z,17.4
2023-04-28T10:21:44.326Z,16.6
2023-04-28T10:27:36.070Z,15.9
2023-04-28T10:33:40.340Z,18
2023-04-28T10:39:43.439Z,16
2023-04-28T10:45:35.238Z,16.3
2023-04-28T10:51:44.973Z,16.6
2023-04-28T10:57:48.763Z,16.2
2023-04-28T11:03:41.253Z,16.9
2023-04-28T11:09:33.577Z,15.1
2023-04-28T11:15:27.530Z,18.5
2023-04-28T11:21:03.588Z,18.6
2023-04-28T11:26:55.097Z,18.8
2023-04-28T11:32:46.615Z,17.6
2023-04-28T11:38:39.416Z,17.8
2023-04-28T11:44:37.388Z,19.6
2023-04-28T11:50:30.590Z,17.5
2023-04-28T11:56:22.588Z,18.9
2023-04-28T12:02:16.207Z,18.4
2023-04-28T12:08:12.563Z,18.4
2023-04-28T12:14:20.049Z,18.3
2023-04-28T12:20:12.508Z,19.1
2023-04-28T12:31:40.941Z,19.1
2023-04-28T12:37:34.284Z,17.9
2023-04-28T12:43:26.448Z,17.1
2023-04-28T12:49:19.742Z,19.5
2023-04-28T12:55:11.249Z,20.2
2023-04-28T13:00:47.883Z,19.1
2023-04-28T13:06:41.947Z,17.3
2023-04-28T13:12:44.224Z,19.5
2023-04-28T13:18:36.411Z,19.1
2023-04-28T13:24:30.423Z,18.8
2023-04-28T13:35:43.359Z,19.4
2023-04-28T13:41:36.119Z,20.1
2023-04-28T13:47:27.504Z,20.3
2023-04-28T13:53:18.598Z,19.9
2023-04-28T13:59:10.744Z,20.3
2023-04-28T14:05:04.489Z,18.9
2023-04-28T14:10:54.526Z,19.3
2023-04-28T14:16:57.759Z,18.9
2023-04-28T14:22:48.643Z,19.8
2023-04-28T14:28:39.860Z,20.3
2023-04-28T14:34:32.424Z,18.6
2023-04-28T14:46:01.331Z,19.1
2023-04-28T14:51:53.186Z,19.1
2023-04-28T15:03:39.615Z,19.4
2023-04-28T15:15:12.166Z,18.1
2023-04-28T15:21:05.463Z,18.3
2023-04-28T15:26:57.461Z,17.6
2023-04-28T15:32:50.150Z,17.9
2023-04-28T15:38:46.117Z,18
2023-04-28T15:44:38.083Z,18.6
2023-04-28T15:50:30.213Z,18.6
2023-04-28T15:56:22.527Z,18.2
2023-04-28T16:02:14.711Z,18.6
2023-04-28T16:08:07.907Z,17.9
2023-04-28T16:14:00.541Z,17.8
2023-04-28T16:19:53.487Z,16
2023-04-28T16:25:31.392Z,17.3
2023-04-28T16:31:23.587Z,15.3
2023-04-28T16:37:16.859Z,16.4
2023-04-28T16:43:08.918Z,15.4
2023-04-28T16:49:01.603Z,14.6
2023-04-28T16:54:54.168Z,14.3
2023-04-28T17:00:46.799Z,14
2023-04-28T17:06:10.120Z,13.6
2023-04-28T17:12:01.924Z,13.3
2023-04-28T17:17:56.735Z,12.9
2023-04-28T17:23:49.526Z,12.7
2023-04-28T17:29:41.138Z,12.6
2023-04-28T17:35:36.189Z,12.3
2023-04-28T17:41:28.494Z,12
2023-04-28T17:47:20.294Z,11.6
2023-04-28T17:53:14.139Z,11.6
2023-04-28T17:59:06.126Z,11.4
2023-04-28T18:04:59.218Z,11
2023-04-28T18:10:54.461Z,10.8
2023-04-28T18:16:49.240Z,10.8
2023-04-28T18:22:43.931Z,11.3
2023-04-28T18:28:36.016Z,11
2023-04-28T18:34:31.433Z,10.7
2023-04-28T18:40:23.491Z,10.6
2023-04-28T18:46:17.064Z,10.6
2023-04-28T18:52:10.563Z,10.9
2023-04-28T18:58:02.506Z,10.9
2023-04-28T19:03:55.433Z,10.7
2023-04-28T19:09:37.401Z,10.6
2023-04-28T19:15:28.935Z,10.8
2023-04-28T19:21:20.857Z,10.6
2023-04-28T19:27:13.830Z,10.5
2023-04-28T19:33:05.826Z,10.2
2023-04-28T19:38:57.991Z,10.2
2023-04-28T19:44:50.664Z,9.6
2023-04-28T19:50:43.855Z,9.4
2023-04-28T19:56:36.204Z,9.4
2023-04-28T20:02:00.744Z,9.3
2023-04-28T20:07:56.051Z,9.3
2023-04-28T20:13:32.639Z,8.8
2023-04-28T20:19:24.665Z,8.7
2023-04-28T20:25:16.760Z,8.8
2023-04-28T20:31:09.315Z,7.8
2023-04-28T20:37:01.318Z,7.6
2023-04-28T20:42:52.907Z,7.2
2023-04-28T20:48:46.933Z,6.6
2023-04-28T20:54:39.911Z,6.6
2023-04-28T21:00:32.137Z,6.4
2023-04-28T21:06:25.918Z,6.3
2023-04-28T21:12:17.217Z,6.3
2023-04-28T21:18:08.695Z,5.9
2023-04-28T21:23:45.368Z,5.8
2023-04-28T21:29:36.690Z,5.6
2023-04-28T21:35:28.822Z,5.1
2023-04-28T21:41:19.876Z,4.8
2023-04-28T21:46:56.657Z,4.7
2023-04-28T21:52:17.221Z,4.5
2023-04-28T21:58:08.741Z,4.5
2023-04-28T22:04:02.490Z,4.5
2023-04-28T22:09:39.074Z,4.6
2023-04-28T22:15:46.533Z,4.6
2023-04-28T22:21:38.592Z,4.4
2023-04-28T22:27:30.097Z,4.4
2023-04-28T22:33:06.008Z,4.4
2023-04-28T22:38:42.290Z,4.3
2023-04-28T22:44:18.541Z,4.3
2023-04-28T22:50:09.746Z,4.4
2023-04-28T22:56:01.076Z,4.4
2023-04-28T23:01:40.057Z,4.4
2023-04-28T23:07:34.084Z,4.3
2023-04-28T23:13:10.230Z,4.4
2023-04-28T23:19:02.017Z,4.3
2023-04-28T23:24:55.712Z,4.3
2023-04-28T23:30:31.742Z,4.2
2023-04-28T23:36:08.234Z,4.1
2023-04-28T23:41:44.622Z,4
2023-04-28T23:47:21.087Z,3.9
2023-04-28T23:53:12.152Z,3.8
2023-04-28T23:59:03.042Z,3.7
